createdAt,value
2022-08-02T00:01:05.890Z,72.33
2022-08-02T00:03:34.386Z,72.36
2022-08-02T00:06:04.711Z,72.51
2022-08-02T00:08:33.186Z,72.49
2022-08-02T00:11:01.612Z,72.40
2022-08-02T00:13:30.326Z,72.62
2022-08-02T00:15:58.958Z,72.75
2022-08-02T00:18:27.551Z,72.63
2022-08-02T00:20:55.953Z,72.73
2022-08-02T00:23:24.446Z,72.55
2022-08-02T00:25:55.365Z,72.77
2022-08-02T00:28:29.023Z,72.51
2022-08-02T00:31:00.220Z,72.69
2022-08-02T00:34:26.969Z,72.74
2022-08-02T00:36:19.507Z,72.37
2022-08-02T00:38:48.135Z,72.37
2022-08-02T00:41:18.711Z,72.34
2022-08-02T00:43:50.230Z,72.27
2022-08-02T00:46:19.935Z,72.55
2022-08-02T00:48:48.586Z,72.42
2022-08-02T00:51:18.359Z,72.32
2022-08-02T00:53:46.855Z,72.34
2022-08-02T00:56:15.339Z,72.59
2022-08-02T00:58:43.804Z,72.48
2022-08-02T01:01:12.333Z,72.60
2022-08-02T01:03:40.887Z,72.42
2022-08-02T01:06:12.318Z,72.55
2022-08-02T01:08:40.892Z,72.55
2022-08-02T01:11:09.545Z,72.55
2022-08-02T01:13:38.139Z,72.76
2022-08-02T01:16:15.800Z,72.60
2022-08-02T01:18:50.989Z,72.93
2022-08-02T01:21:46.175Z,72.86
2022-08-02T01:24:25.328Z,72.91
2022-08-02T01:27:00.441Z,73.00
2022-08-02T01:29:33.768Z,72.98
2022-08-02T01:32:09.285Z,73.04
2022-08-02T01:34:43.696Z,72.91
2022-08-02T01:37:18.126Z,72.98
2022-08-02T01:39:51.275Z,73.15
2022-08-02T01:42:21.416Z,73.11
2022-08-02T01:44:53.194Z,73.13
2022-08-02T01:47:26.144Z,72.99
2022-08-02T01:49:57.417Z,72.82
2022-08-02T01:52:29.379Z,72.98
2022-08-02T01:55:01.505Z,72.99
2022-08-02T01:57:34.066Z,72.99
2022-08-02T02:00:12.512Z,73.02
2022-08-02T02:02:47.257Z,72.95
2022-08-02T02:05:19.058Z,73.18
2022-08-02T02:07:51.370Z,73.21
2022-08-02T02:10:25.742Z,73.10
2022-08-02T02:12:56.603Z,73.09
2022-08-02T02:15:26.604Z,73.04
2022-08-02T02:18:12.646Z,73.17
2022-08-02T02:20:43.057Z,73.00
2022-08-02T02:23:13.377Z,73.13
2022-08-02T02:25:46.829Z,73.07
2022-08-02T02:28:21.906Z,73.09
2022-08-02T02:30:55.059Z,73.04
2022-08-02T02:33:29.071Z,72.93
2022-08-02T02:36:02.463Z,72.81
2022-08-02T02:38:32.791Z,72.98
2022-08-02T02:41:04.373Z,72.99
2022-08-02T02:43:34.978Z,72.92
2022-08-02T02:46:05.198Z,72.92
2022-08-02T02:48:35.947Z,72.99
2022-08-02T02:51:06.253Z,72.92
2022-08-02T03:01:55.684Z,73.07
2022-08-02T03:04:14.044Z,73.01
2022-08-02T03:06:42.576Z,73.07
2022-08-02T03:09:11.701Z,73.00
2022-08-02T03:14:43.344Z,72.90
2022-08-02T03:17:32.684Z,72.71
2022-08-02T03:20:22.018Z,72.77
2022-08-02T03:23:09.292Z,72.86
2022-08-02T03:25:37.719Z,72.93
2022-08-02T03:28:06.141Z,72.89
2022-08-02T03:31:11.913Z,72.90
2022-08-02T03:33:40.348Z,72.89
2022-08-02T03:36:14.861Z,72.92
2022-08-02T03:38:44.997Z,72.93
2022-08-02T03:47:42.126Z,73.44
2022-08-02T04:01:44.439Z,73.01
2022-08-02T04:04:12.884Z,72.97
2022-08-02T04:06:41.726Z,72.98
2022-08-02T04:09:10.369Z,73.00
2022-08-02T04:11:38.791Z,73.15
2022-08-02T04:14:09.905Z,73.12
2022-08-02T04:16:43.273Z,73.49
2022-08-02T04:19:15.417Z,73.46
2022-08-02T04:21:51.247Z,73.61
2022-08-02T04:24:26.613Z,73.55
2022-08-02T04:27:06.606Z,73.80
2022-08-02T04:29:47.626Z,73.90
2022-08-02T04:32:16.955Z,73.91
2022-08-02T04:35:05.048Z,73.90
2022-08-02T04:37:37.397Z,74.01
2022-08-02T04:40:10.421Z,74.00
2022-08-02T04:42:39.329Z,74.17
2022-08-02T04:45:10.637Z,74.22
2022-08-02T04:48:01.943Z,74.33
2022-08-02T04:50:32.287Z,74.37
2022-08-02T04:53:00.861Z,74.43
2022-08-02T04:55:29.493Z,74.49
2022-08-02T04:57:58.860Z,74.54
2022-08-02T05:00:30.365Z,74.69
2022-08-02T05:02:59.928Z,74.71
2022-08-02T05:05:31.189Z,75.13
2022-08-02T05:08:00.123Z,75.12
2022-08-02T05:10:29.039Z,75.07
2022-08-02T05:12:57.565Z,75.08
2022-08-02T05:15:29.265Z,75.13
2022-08-02T05:18:04.333Z,75.28
2022-08-02T05:20:32.789Z,75.28
2022-08-02T05:23:02.936Z,75.40
2022-08-02T05:25:31.352Z,75.36
2022-08-02T05:27:59.796Z,75.24
2022-08-02T05:30:30.295Z,75.19
2022-08-02T05:32:58.779Z,75.44
2022-08-02T05:35:27.267Z,75.31
2022-08-02T05:37:55.952Z,75.19
2022-08-02T05:40:26.083Z,75.05
2022-08-02T05:42:55.568Z,74.57
2022-08-02T05:45:23.983Z,74.38
2022-08-02T05:47:52.602Z,74.30
2022-08-02T05:50:21.162Z,73.83
2022-08-02T05:53:02.400Z,73.78
2022-08-02T05:55:34.889Z,73.70
2022-08-02T05:58:12.962Z,73.62
2022-08-02T06:00:43.724Z,73.40
2022-08-02T06:03:20.679Z,73.55
2022-08-02T06:05:54.340Z,73.61
2022-08-02T06:08:29.397Z,73.40
2022-08-02T06:11:02.333Z,73.23
2022-08-02T06:13:31.449Z,72.90
2022-08-02T06:16:00.218Z,72.86
2022-08-02T06:18:31.386Z,72.97
2022-08-02T06:22:32.181Z,72.46
2022-08-02T06:23:58.089Z,72.08
2022-08-02T06:26:28.537Z,71.88
2022-08-02T06:28:58.389Z,72.24
2022-08-02T06:31:27.222Z,72.80
2022-08-02T06:33:55.964Z,72.46
2022-08-02T06:36:32.646Z,71.56
2022-08-02T06:39:05.608Z,71.08
2022-08-02T06:41:41.685Z,70.94
2022-08-02T06:47:10.960Z,69.98
2022-08-02T06:49:52.182Z,69.39
2022-08-02T06:52:29.372Z,68.80
2022-08-02T06:55:00.366Z,68.83
2022-08-02T06:57:29.666Z,69.67
2022-08-02T07:00:00.519Z,69.74
2022-08-02T07:02:29.275Z,69.22
2022-08-02T07:04:58.520Z,69.26
2022-08-02T07:07:27.755Z,68.75
2022-08-02T07:10:01.482Z,67.78
2022-08-02T07:12:31.874Z,67.71
2022-08-02T07:15:01.965Z,67.96
2022-08-02T07:17:31.161Z,68.41
2022-08-02T07:20:04.370Z,69.07
2022-08-02T07:22:32.920Z,67.89
2022-08-02T07:25:01.836Z,67.77
2022-08-02T07:27:30.325Z,67.63
2022-08-02T07:29:59.424Z,67.42
2022-08-02T07:32:31.196Z,67.81
2022-08-02T07:35:01.471Z,67.90
2022-08-02T07:37:54.682Z,67.75
2022-08-02T07:40:27.754Z,68.05
2022-08-02T07:43:03.421Z,67.92
2022-08-02T07:45:33.265Z,67.65
2022-08-02T07:48:05.658Z,67.91
2022-08-02T07:50:34.588Z,67.47
2022-08-02T07:53:03.242Z,67.32
2022-08-02T07:55:39.194Z,66.81
2022-08-02T07:58:11.071Z,67.18
2022-08-02T08:00:43.205Z,66.60
2022-08-02T08:03:12.019Z,66.39
2022-08-02T08:05:40.476Z,65.33
2022-08-02T08:08:13.632Z,65.80
2022-08-02T08:10:45.745Z,65.50
2022-08-02T08:13:14.466Z,65.49
2022-08-02T08:15:44.006Z,65.65
2022-08-02T08:18:22.067Z,64.94
2022-08-02T08:20:51.174Z,64.44
2022-08-02T08:23:19.736Z,64.21
2022-08-02T08:25:48.161Z,63.83
2022-08-02T08:28:16.655Z,64.17
2022-08-02T08:30:46.812Z,63.90
2022-08-02T08:33:15.489Z,63.73
2022-08-02T08:35:43.968Z,63.79
2022-08-02T08:38:12.679Z,63.36
2022-08-02T08:40:41.625Z,63.12
2022-08-02T08:43:13.489Z,63.88
2022-08-02T08:45:44.377Z,62.87
2022-08-02T08:48:15.273Z,62.33
2022-08-02T08:51:05.161Z,62.64
2022-08-02T08:53:40.095Z,62.31
2022-08-02T08:56:15.928Z,62.13
2022-08-02T08:58:46.821Z,62.20
2022-08-02T09:01:16.473Z,61.49
2022-08-02T09:03:45.499Z,61.57
2022-08-02T09:06:13.891Z,62.02
2022-08-02T09:08:42.333Z,62.18
2022-08-02T09:11:15.362Z,61.67
2022-08-02T09:13:51.703Z,61.57
2022-08-02T09:16:32.481Z,62.24
2022-08-02T09:19:02.231Z,63.00
2022-08-02T09:21:37.896Z,62.56
2022-08-02T09:24:17.287Z,62.23
2022-08-02T09:26:46.596Z,61.82
2022-08-02T09:29:16.058Z,62.07
2022-08-02T09:31:49.492Z,61.95
2022-08-02T09:34:19.916Z,61.82
2022-08-02T09:36:48.907Z,60.03
2022-08-02T09:39:25.723Z,60.77
2022-08-02T09:42:10.033Z,61.22
2022-08-02T09:44:38.946Z,60.06
2022-08-02T09:47:16.393Z,60.29
2022-08-02T09:49:52.407Z,60.04
2022-08-02T09:52:37.098Z,60.38
2022-08-02T09:55:12.883Z,59.34
2022-08-02T09:57:42.548Z,59.33
2022-08-02T10:00:14.015Z,59.69
2022-08-02T10:03:08.937Z,59.80
2022-08-02T10:05:56.150Z,58.50
2022-08-02T10:08:26.786Z,58.80
2022-08-02T10:11:00.173Z,58.64
2022-08-02T10:13:34.111Z,57.96
2022-08-02T10:16:04.162Z,57.26
2022-08-02T10:18:41.108Z,56.84
2022-08-02T10:21:14.992Z,55.79
2022-08-02T10:23:45.762Z,55.84
2022-08-02T10:26:17.598Z,55.89
2022-08-02T10:28:49.346Z,55.07
2022-08-02T10:31:23.881Z,55.19
2022-08-02T10:33:54.300Z,55.36
2022-08-02T10:36:26.395Z,54.74
2022-08-02T10:38:58.001Z,53.87
2022-08-02T10:41:46.900Z,52.96
2022-08-02T10:44:24.150Z,53.28
2022-08-02T10:47:15.125Z,52.99
2022-08-02T10:49:50.254Z,52.87
2022-08-02T10:52:19.406Z,52.90
2022-08-02T10:54:56.677Z,53.48
2022-08-02T10:57:26.851Z,52.57
2022-08-02T11:00:01.069Z,53.05
2022-08-02T11:02:40.790Z,53.76
2022-08-02T11:05:12.633Z,53.32
2022-08-02T11:07:43.878Z,53.02
2022-08-02T11:10:37.682Z,52.75
2022-08-02T11:13:09.887Z,52.72
2022-08-02T11:16:00.904Z,53.83
2022-08-02T11:19:03.547Z,53.67
2022-08-02T11:21:35.961Z,53.26
2022-08-02T11:24:29.394Z,52.38
2022-08-02T11:26:59.132Z,53.18
2022-08-02T11:29:39.951Z,52.77
2022-08-02T11:32:15.083Z,52.40
2022-08-02T11:34:45.597Z,52.36
2022-08-02T11:37:27.045Z,51.98
2022-08-02T11:39:55.568Z,52.51
2022-08-02T11:42:32.485Z,52.83
2022-08-02T11:45:01.305Z,52.25
2022-08-02T11:47:31.056Z,52.33
2022-08-02T11:50:06.589Z,51.72
2022-08-02T11:52:36.498Z,52.53
2022-08-02T11:55:06.892Z,52.60
2022-08-02T11:58:04.657Z,52.23
2022-08-02T12:00:26.905Z,51.11
2022-08-02T12:02:59.869Z,51.15
2022-08-02T12:06:02.798Z,51.31
2022-08-02T12:08:22.206Z,51.90
2022-08-02T12:10:53.750Z,52.15
2022-08-02T12:13:22.350Z,51.91
2022-08-02T12:15:50.835Z,51.52
2022-08-02T12:18:39.658Z,51.66
2022-08-02T12:21:23.342Z,51.53
2022-08-02T12:23:58.849Z,51.11
2022-08-02T12:26:30.208Z,51.29
2022-08-02T12:29:00.819Z,50.33
2022-08-02T12:31:55.659Z,49.78
2022-08-02T12:34:29.997Z,50.90
2022-08-02T12:37:04.750Z,51.26
2022-08-02T12:39:41.896Z,50.60
2022-08-02T12:42:14.732Z,50.69
2022-08-02T12:44:52.162Z,50.19
2022-08-02T12:47:21.468Z,50.50
2022-08-02T12:50:15.025Z,51.11
2022-08-02T12:52:47.030Z,51.30
2022-08-02T12:55:20.940Z,51.09
2022-08-02T12:57:56.281Z,49.92
2022-08-02T13:00:27.829Z,50.43
2022-08-02T13:02:57.279Z,50.24
2022-08-02T13:05:28.389Z,49.93
2022-08-02T13:07:57.976Z,49.48
2022-08-02T13:10:26.720Z,47.95
2022-08-02T13:12:55.209Z,47.56
2022-08-02T13:15:49.600Z,47.29
2022-08-02T13:18:13.846Z,47.76
2022-08-02T13:20:45.459Z,47.28
2022-08-02T13:23:21.078Z,46.18
2022-08-02T13:25:52.925Z,44.92
2022-08-02T13:28:22.341Z,45.59
2022-08-02T13:30:50.916Z,45.76
2022-08-02T13:33:19.624Z,46.35
2022-08-02T13:35:49.101Z,45.73
2022-08-02T13:38:21.866Z,45.45
2022-08-02T13:41:08.348Z,45.00
2022-08-02T13:43:52.771Z,44.23
2022-08-02T13:46:29.347Z,44.66
2022-08-02T13:48:58.686Z,44.23
2022-08-02T13:51:27.172Z,45.04
2022-08-02T13:53:55.586Z,45.64
2022-08-02T13:56:35.575Z,45.84
2022-08-02T13:59:54.109Z,46.04
2022-08-02T14:01:54.565Z,45.51
2022-08-02T14:04:23.636Z,46.37
2022-08-02T14:06:52.735Z,45.62
2022-08-02T14:09:21.443Z,45.38
2022-08-02T14:11:49.932Z,46.14
2022-08-02T14:14:18.431Z,46.04
2022-08-02T14:16:47.196Z,46.80
2022-08-02T14:19:17.383Z,47.00
2022-08-02T14:21:47.896Z,46.30
2022-08-02T14:24:18.439Z,45.05
2022-08-02T14:26:48.168Z,44.81
2022-08-02T14:29:16.877Z,44.47
2022-08-02T14:31:45.420Z,44.50
2022-08-02T14:34:14.139Z,44.47
2022-08-02T14:36:42.603Z,44.87
2022-08-02T14:39:11.948Z,45.59
2022-08-02T14:41:58.033Z,45.15
2022-08-02T14:44:29.225Z,43.66
2022-08-02T14:46:57.799Z,43.98
2022-08-02T14:49:27.009Z,43.85
2022-08-02T14:51:56.429Z,42.97
2022-08-02T14:54:30.951Z,43.29
2022-08-02T14:57:01.772Z,43.69
2022-08-02T14:59:31.111Z,44.47
2022-08-02T15:02:00.725Z,43.92
2022-08-02T15:04:34.189Z,42.79
2022-08-02T15:07:11.944Z,43.60
2022-08-02T15:09:40.614Z,43.65
2022-08-02T15:12:11.538Z,43.65
2022-08-02T15:14:41.203Z,43.73
2022-08-02T15:17:10.218Z,43.58
2022-08-02T15:19:58.999Z,44.56
2022-08-02T15:22:29.510Z,43.76
2022-08-02T15:24:59.676Z,43.93
2022-08-02T15:27:28.145Z,44.74
2022-08-02T15:29:59.478Z,44.13
2022-08-02T15:32:28.129Z,44.76
2022-08-02T15:34:57.518Z,43.23
2022-08-02T15:37:30.846Z,42.89
2022-08-02T15:40:00.501Z,43.66
2022-08-02T15:42:30.487Z,43.21
2022-08-02T15:44:59.874Z,43.48
2022-08-02T15:47:28.306Z,44.06
2022-08-02T15:49:56.823Z,43.43
2022-08-02T15:52:27.283Z,43.58
2022-08-02T15:54:55.744Z,42.73
2022-08-02T15:57:24.400Z,43.54
2022-08-02T15:59:53.463Z,44.57
2022-08-02T16:02:22.346Z,44.07
2022-08-02T16:04:50.912Z,44.67
2022-08-02T16:07:19.387Z,43.42
2022-08-02T16:09:47.937Z,43.47
2022-08-02T16:12:16.467Z,43.26
2022-08-02T16:14:45.832Z,43.25
2022-08-02T16:17:14.323Z,44.48
2022-08-02T16:20:03.141Z,44.56
2022-08-02T16:22:31.673Z,44.34
2022-08-02T16:25:00.077Z,44.36
2022-08-02T16:27:28.556Z,44.86
2022-08-02T16:29:59.411Z,44.06
2022-08-02T16:32:28.098Z,43.05
2022-08-02T16:35:08.426Z,42.89
2022-08-02T16:37:51.971Z,43.36
2022-08-02T16:40:21.606Z,43.23
2022-08-02T16:42:50.662Z,43.04
2022-08-02T16:45:21.375Z,42.15
2022-08-02T16:47:55.974Z,42.74
2022-08-02T16:50:29.055Z,42.93
2022-08-02T16:52:58.784Z,42.51
2022-08-02T16:55:30.358Z,42.88
2022-08-02T16:57:59.873Z,42.23
2022-08-02T17:00:28.677Z,42.48
2022-08-02T17:02:59.657Z,42.54
2022-08-02T17:05:56.922Z,42.41
2022-08-02T17:11:17.402Z,41.88
2022-08-02T17:13:46.174Z,41.39
2022-08-02T17:16:20.532Z,41.77
2022-08-02T17:18:55.788Z,41.57
2022-08-02T17:21:24.232Z,41.60
2022-08-02T17:24:05.993Z,41.65
2022-08-02T17:26:37.884Z,42.07
2022-08-02T17:29:16.402Z,41.67
2022-08-02T17:32:05.580Z,41.80
2022-08-02T17:34:36.503Z,41.78
2022-08-02T17:37:06.870Z,41.82
2022-08-02T17:39:44.100Z,41.66
2022-08-02T17:42:23.029Z,41.49
2022-08-02T17:44:53.574Z,41.75
2022-08-02T17:47:22.425Z,41.70
2022-08-02T17:49:52.856Z,41.84
2022-08-02T17:52:50.040Z,41.45
2022-08-02T17:55:14.170Z,41.40
2022-08-02T17:57:57.769Z,41.40
2022-08-02T18:00:41.955Z,41.46
2022-08-02T18:03:13.668Z,41.31
2022-08-02T18:05:55.210Z,41.57
2022-08-02T18:08:24.308Z,41.50
2022-08-02T18:10:53.846Z,41.58
2022-08-02T18:13:23.108Z,41.98
2022-08-02T18:15:52.167Z,42.08
2022-08-02T18:18:29.930Z,42.42
2022-08-02T18:21:15.953Z,42.67
2022-08-02T18:23:58.497Z,42.71
2022-08-02T18:26:28.947Z,42.66
2022-08-02T18:28:59.260Z,42.86
2022-08-02T18:31:28.904Z,42.87
2022-08-02T18:34:08.083Z,42.97
2022-08-02T18:36:36.600Z,43.09
2022-08-02T18:39:16.491Z,43.31
2022-08-02T18:41:45.233Z,43.38
2022-08-02T18:44:16.780Z,43.77
2022-08-02T18:46:49.394Z,43.86
2022-08-02T18:49:18.340Z,43.76
2022-08-02T18:51:47.095Z,43.81
2022-08-02T18:54:16.094Z,43.86
2022-08-02T18:56:56.269Z,44.13
2022-08-02T18:59:25.850Z,44.34
2022-08-02T19:01:54.409Z,44.35
2022-08-02T19:04:26.883Z,44.30
2022-08-02T19:07:03.977Z,44.35
2022-08-02T19:09:40.131Z,44.31
2022-08-02T19:12:11.700Z,44.50
2022-08-02T19:15:01.245Z,44.65
2022-08-02T19:17:54.338Z,45.01
2022-08-02T19:20:19.676Z,45.28
2022-08-02T19:22:49.583Z,45.41
2022-08-02T19:25:27.873Z,45.70
2022-08-02T19:27:56.821Z,46.05
2022-08-02T19:30:26.235Z,45.93
2022-08-02T19:32:59.541Z,46.21
2022-08-02T19:35:34.239Z,46.21
2022-08-02T19:38:08.963Z,46.68
2022-08-02T19:40:38.771Z,47.03
2022-08-02T19:44:21.901Z,47.46
2022-08-02T19:45:57.399Z,47.47
2022-08-02T19:48:26.966Z,47.47
2022-08-02T19:51:00.538Z,47.31
2022-08-02T19:57:25.050Z,47.65
2022-08-02T19:59:54.048Z,47.85
2022-08-02T20:02:22.851Z,47.93
2022-08-02T20:04:53.006Z,48.06
2022-08-02T20:07:54.638Z,48.17
2022-08-02T20:10:12.034Z,48.29
2022-08-02T20:12:41.321Z,48.48
2022-08-02T20:15:15.129Z,48.71
2022-08-02T20:17:47.643Z,49.05
2022-08-02T20:20:18.393Z,49.12
2022-08-02T20:23:33.899Z,49.38
2022-08-02T20:25:57.586Z,49.79
2022-08-02T20:28:27.661Z,50.09
2022-08-02T20:30:56.395Z,50.34
2022-08-02T20:33:24.953Z,50.50
2022-08-02T20:35:53.523Z,50.98
2022-08-02T20:38:24.983Z,51.13
2022-08-02T20:40:58.304Z,50.92
2022-08-02T20:43:31.248Z,50.91
2022-08-02T20:46:02.735Z,50.98
2022-08-02T20:48:31.147Z,50.92
2022-08-02T20:51:09.568Z,51.08
2022-08-02T20:54:26.796Z,51.42
2022-08-02T20:56:55.293Z,52.15
2022-08-02T20:59:24.531Z,52.31
2022-08-02T21:01:57.445Z,52.24
2022-08-02T21:04:29.181Z,52.14
2022-08-02T21:06:58.586Z,51.91
2022-08-02T21:12:38.640Z,52.51
2022-08-02T21:15:20.325Z,52.70
2022-08-02T21:17:52.633Z,53.00
2022-08-02T21:20:29.199Z,52.99
2022-08-02T21:22:58.651Z,53.12
2022-08-02T21:25:42.798Z,53.40
2022-08-02T21:28:17.763Z,53.56
2022-08-02T21:30:46.891Z,53.51
2022-08-02T21:33:18.072Z,53.75
2022-08-02T21:35:52.351Z,54.05
2022-08-02T21:38:36.475Z,54.42
2022-08-02T21:41:46.093Z,54.61
2022-08-02T21:44:17.222Z,54.68
2022-08-02T21:46:49.096Z,54.83
2022-08-02T21:49:20.099Z,54.97
2022-08-02T21:51:50.284Z,55.07
2022-08-02T22:04:36.971Z,55.16
2022-08-02T22:07:05.377Z,55.13
2022-08-02T22:09:43.757Z,55.19
2022-08-02T22:12:17.671Z,55.52
2022-08-02T22:14:53.965Z,55.74
2022-08-02T22:17:51.234Z,55.66
2022-08-02T22:20:15.419Z,55.84
2022-08-02T22:22:48.084Z,55.92
2022-08-02T22:25:26.465Z,56.65
2022-08-02T22:28:36.561Z,56.89
2022-08-02T22:30:57.412Z,56.72
2022-08-02T22:33:47.287Z,56.84
2022-08-02T22:36:32.040Z,56.96
2022-08-02T22:39:01.738Z,57.12
2022-08-02T22:42:01.152Z,57.17
2022-08-02T22:48:14.899Z,57.65
2022-08-02T22:50:44.323Z,58.11
2022-08-02T22:56:44.681Z,57.87
2022-08-02T22:58:36.989Z,42.87
2022-08-02T23:01:44.494Z,58.10
2022-08-02T23:04:13.023Z,58.42
2022-08-02T23:06:41.434Z,58.52
2022-08-02T23:09:09.891Z,58.64
2022-08-02T23:11:38.308Z,58.60
2022-08-02T23:14:06.753Z,58.61
2022-08-02T23:16:53.543Z,58.65
2022-08-02T23:19:40.014Z,58.90
2022-08-02T23:22:08.435Z,59.56
2022-08-02T23:24:36.880Z,59.51
2022-08-02T23:27:05.432Z,59.55
2022-08-02T23:29:33.888Z,59.76
2022-08-02T23:32:02.427Z,59.55
2022-08-02T23:34:31.078Z,59.82
2022-08-02T23:36:59.476Z,59.95
2022-08-02T23:39:27.832Z,60.02
2022-08-02T23:41:56.254Z,60.31
2022-08-02T23:44:27.587Z,60.14
2022-08-02T23:46:57.513Z,60.44
2022-08-02T23:49:26.534Z,60.82
2022-08-02T23:52:01.259Z,60.54
